createdAt,value
2018-10-05T00:01:11.482Z,96001.75
2018-10-05T00:03:40.476Z,96005.67
2018-10-05T00:06:09.578Z,96004.06
2018-10-05T00:08:38.343Z,95998.45
2018-10-05T00:11:07.188Z,95998.70
2018-10-05T00:13:36.261Z,95995.31
2018-10-05T00:16:05.205Z,95939.29
2018-10-05T00:18:34.018Z,95993.54
2018-10-05T00:21:03.044Z,95986.07
2018-10-05T00:23:31.853Z,95979.63
2018-10-05T00:26:00.683Z,95976.22
2018-10-05T00:28:29.883Z,95980.19
2018-10-05T00:30:58.687Z,95979.61
2018-10-05T00:33:27.584Z,95970.72
2018-10-05T00:35:56.694Z,95967.66
2018-10-05T00:38:25.267Z,95973.12
2018-10-05T00:40:57.127Z,95975.24
2018-10-05T00:43:26.303Z,95985.86
2018-10-05T00:45:55.407Z,95978.95
2018-10-05T00:48:24.499Z,95976.43
2018-10-05T00:50:53.804Z,95975.44
2018-10-05T00:53:22.823Z,95979.91
2018-10-05T00:55:52.123Z,95986.16
2018-10-05T00:58:20.800Z,95982.16
2018-10-05T01:00:49.587Z,95995.91
2018-10-05T01:03:18.599Z,95986.88
2018-10-05T01:05:47.371Z,95980.91
2018-10-05T01:08:16.003Z,95983.94
2018-10-05T01:10:44.978Z,95978.25
2018-10-05T01:13:13.841Z,95982.09
2018-10-05T01:15:42.565Z,95978.87
2018-10-05T01:18:11.382Z,95979.18
2018-10-05T01:20:40.515Z,95981.45
2018-10-05T01:23:09.410Z,95982.47
2018-10-05T01:25:38.131Z,95983.77
2018-10-05T01:28:07.191Z,95988.25
2018-10-05T01:30:36.185Z,95990.02
2018-10-05T01:33:04.979Z,95985.40
2018-10-05T01:35:33.954Z,95985.73
2018-10-05T01:38:02.801Z,95992.05
2018-10-05T01:40:31.760Z,95988.72
2018-10-05T01:43:00.483Z,95981.31
2018-10-05T01:45:29.343Z,95984.33
2018-10-05T01:47:58.303Z,95983.41
2018-10-05T01:50:27.182Z,95981.06
2018-10-05T01:52:55.903Z,95996.00
2018-10-05T01:55:24.827Z,95998.60
2018-10-05T01:57:53.831Z,95996.70
2018-10-05T02:00:22.775Z,95985.27
2018-10-05T02:02:52.146Z,95987.87
2018-10-05T02:05:21.007Z,95986.86
2018-10-05T02:07:49.865Z,95989.59
2018-10-05T02:10:18.834Z,95993.63
2018-10-05T02:12:47.481Z,95996.14
2018-10-05T02:15:16.307Z,95998.36
2018-10-05T02:17:45.499Z,95997.62
2018-10-05T02:20:14.431Z,95998.85
2018-10-05T02:22:43.296Z,96002.14
2018-10-05T02:25:12.701Z,95996.81
2018-10-05T02:27:41.638Z,96000.64
2018-10-05T02:30:10.515Z,96002.25
2018-10-05T02:32:39.603Z,96008.73
2018-10-05T02:35:08.799Z,96017.41
2018-10-05T02:37:37.439Z,96010.18
2018-10-05T02:40:06.404Z,96005.91
2018-10-05T02:42:35.045Z,96009.94
2018-10-05T02:45:04.107Z,96010.17
2018-10-05T02:47:33.508Z,96009.16
2018-10-05T02:50:02.366Z,96009.11
2018-10-05T02:52:31.349Z,96011.15
2018-10-05T02:55:00.288Z,96012.05
2018-10-05T02:57:29.391Z,96006.22
2018-10-05T02:59:58.519Z,96007.14
2018-10-05T03:02:31.850Z,96012.56
2018-10-05T03:05:01.090Z,96007.20
2018-10-05T03:07:30.610Z,96007.13
2018-10-05T03:10:00.731Z,96017.31
2018-10-05T03:12:29.854Z,96015.44
2018-10-05T03:14:58.638Z,96017.82
2018-10-05T03:17:27.740Z,96010.28
2018-10-05T03:19:56.970Z,96015.56
2018-10-05T03:22:25.995Z,96007.72
2018-10-05T03:24:55.052Z,96014.83
2018-10-05T03:27:23.786Z,96013.59
2018-10-05T03:29:52.812Z,96009.08
2018-10-05T03:32:22.119Z,96011.92
2018-10-05T03:34:50.727Z,96007.58
2018-10-05T03:37:19.550Z,96011.98
2018-10-05T03:39:48.294Z,96010.59
2018-10-05T03:42:17.111Z,96015.89
2018-10-05T03:44:45.991Z,96012.13
2018-10-05T03:47:15.275Z,96020.81
2018-10-05T03:49:44.049Z,96020.95
2018-10-05T03:52:12.987Z,96020.63
2018-10-05T03:54:42.512Z,96022.64
2018-10-05T03:57:11.650Z,96019.69
2018-10-05T03:59:40.725Z,96019.73
2018-10-05T04:02:09.761Z,96014.96
2018-10-05T04:04:38.691Z,96026.97
2018-10-05T04:07:07.487Z,96018.62
2018-10-05T04:09:36.159Z,96023.93
2018-10-05T04:12:04.910Z,96021.43
2018-10-05T04:14:34.139Z,96020.45
2018-10-05T04:17:03.107Z,96022.16
2018-10-05T04:19:32.173Z,96023.05
2018-10-05T04:22:01.279Z,96021.67
2018-10-05T04:24:30.408Z,96024.36
2018-10-05T04:26:59.759Z,96016.28
2018-10-05T04:29:28.629Z,96010.09
2018-10-05T04:31:57.775Z,96014.52
2018-10-05T04:34:26.449Z,96014.23
2018-10-05T04:36:55.176Z,96017.14
2018-10-05T04:39:24.159Z,96012.50
2018-10-05T04:41:52.786Z,96021.30
2018-10-05T04:44:21.947Z,96019.64
2018-10-05T04:46:50.922Z,96026.33
2018-10-05T04:49:20.003Z,96025.72
2018-10-05T04:51:48.859Z,96033.81
2018-10-05T04:54:17.738Z,96039.59
2018-10-05T04:56:46.706Z,96043.11
2018-10-05T04:59:15.983Z,96050.39
2018-10-05T05:01:44.879Z,96048.41
2018-10-05T05:04:13.662Z,96048.41
2018-10-05T05:06:42.451Z,96054.78
2018-10-05T05:09:11.672Z,96054.63
2018-10-05T05:11:40.307Z,96061.03
2018-10-05T05:14:09.354Z,96066.31
2018-10-05T05:16:38.799Z,96065.25
2018-10-05T05:19:08.336Z,96066.97
2018-10-05T05:21:37.526Z,96074.27
2018-10-05T05:24:06.778Z,96068.61
2018-10-05T05:26:35.555Z,96072.48
2018-10-05T05:29:04.744Z,96066.19
2018-10-05T05:31:33.872Z,96066.50
2018-10-05T05:34:02.803Z,96074.85
2018-10-05T05:36:31.539Z,96081.84
2018-10-05T05:39:00.398Z,96083.56
2018-10-05T05:41:29.158Z,96084.50
2018-10-05T05:43:58.088Z,96085.05
2018-10-05T05:46:26.957Z,96084.91
2018-10-05T05:48:55.842Z,96091.03
2018-10-05T05:51:24.606Z,96086.92
2018-10-05T05:53:53.712Z,96084.63
2018-10-05T05:56:22.528Z,96089.22
2018-10-05T05:58:51.468Z,96089.55
2018-10-05T06:01:20.661Z,96092.77
2018-10-05T06:03:49.786Z,96100.66
2018-10-05T06:06:18.529Z,96098.78
2018-10-05T06:08:47.238Z,96096.63
2018-10-05T06:11:15.970Z,96101.77
2018-10-05T06:13:44.804Z,96095.30
2018-10-05T06:16:13.737Z,96096.81
2018-10-05T06:18:42.667Z,96098.02
2018-10-05T06:21:11.770Z,96101.35
2018-10-05T06:23:40.765Z,96102.98
2018-10-05T06:26:09.945Z,96105.87
2018-10-05T06:28:38.899Z,96101.38
2018-10-05T06:31:07.849Z,96101.10
2018-10-05T06:33:39.007Z,96102.02
2018-10-05T06:36:07.953Z,96101.47
2018-10-05T06:38:37.388Z,96091.72
2018-10-05T06:41:06.302Z,96092.52
2018-10-05T06:43:35.235Z,96088.00
2018-10-05T06:46:04.233Z,96092.98
2018-10-05T06:48:32.965Z,96091.60
2018-10-05T06:51:01.542Z,96095.47
2018-10-05T06:53:30.183Z,96088.51
2018-10-05T06:55:58.945Z,96089.28
2018-10-05T06:58:27.626Z,96084.95
2018-10-05T07:00:56.356Z,96089.05
2018-10-05T07:03:25.195Z,96086.42
2018-10-05T07:05:54.914Z,96081.30
2018-10-05T07:08:23.611Z,96078.85
2018-10-05T07:10:53.206Z,96082.14
2018-10-05T07:13:22.403Z,96085.79
2018-10-05T07:15:51.087Z,96084.65
2018-10-05T07:18:19.820Z,96087.45
2018-10-05T07:20:48.494Z,96075.92
2018-10-05T07:23:17.203Z,96079.02
2018-10-05T07:25:45.974Z,96079.06
2018-10-05T07:28:14.831Z,96081.63
2018-10-05T07:30:44.022Z,96084.26
2018-10-05T07:33:12.862Z,96085.28
2018-10-05T07:35:41.823Z,96089.66
2018-10-05T07:38:10.847Z,96085.02
2018-10-05T07:40:39.837Z,96086.42
2018-10-05T07:43:08.888Z,96079.80
2018-10-05T07:45:38.012Z,96086.50
2018-10-05T07:48:07.017Z,96089.73
2018-10-05T07:50:36.198Z,96091.72
2018-10-05T07:53:04.883Z,96094.09
2018-10-05T07:55:33.878Z,96084.38
2018-10-05T07:58:02.958Z,96081.91
2018-10-05T08:00:31.656Z,96084.81
2018-10-05T08:03:00.695Z,96085.55
2018-10-05T08:05:29.454Z,96082.84
2018-10-05T08:07:58.572Z,96080.19
2018-10-05T08:10:27.390Z,96086.88
2018-10-05T08:12:56.466Z,96081.37
2018-10-05T08:15:25.554Z,96081.75
2018-10-05T08:17:54.415Z,96084.59
2018-10-05T08:20:23.347Z,96080.79
2018-10-05T08:22:52.216Z,96083.13
2018-10-05T08:25:20.880Z,96079.06
2018-10-05T08:27:49.905Z,96078.21
2018-10-05T08:30:18.908Z,96078.02
2018-10-05T08:32:47.879Z,96075.19
2018-10-05T08:35:16.521Z,96074.36
2018-10-05T08:37:45.215Z,96072.35
2018-10-05T08:40:14.249Z,96063.43
2018-10-05T08:42:43.136Z,96060.28
2018-10-05T08:45:11.891Z,96060.44
2018-10-05T08:47:41.014Z,96056.30
2018-10-05T08:50:09.992Z,96051.16
2018-10-05T08:52:39.137Z,96048.09
2018-10-05T08:55:08.320Z,96048.88
2018-10-05T08:57:37.395Z,96045.30
2018-10-05T09:00:06.654Z,96045.08
2018-10-05T09:02:35.479Z,96041.69
2018-10-05T09:05:04.319Z,96042.67
2018-10-05T09:07:33.014Z,96029.25
2018-10-05T09:10:01.956Z,96036.42
2018-10-05T09:12:30.834Z,96028.40
2018-10-05T09:14:59.913Z,96030.01
2018-10-05T09:17:29.052Z,96025.52
2018-10-05T09:19:57.774Z,96027.86
2018-10-05T09:22:26.602Z,96022.38
2018-10-05T09:24:55.748Z,96019.62
2018-10-05T09:27:24.525Z,96014.91
2018-10-05T09:29:53.323Z,96015.14
2018-10-05T09:32:22.127Z,96008.94
2018-10-05T09:34:51.280Z,96010.42
2018-10-05T09:37:20.229Z,96011.13
2018-10-05T09:39:49.081Z,96011.94
2018-10-05T09:42:18.209Z,96010.58
2018-10-05T09:44:47.301Z,96004.76
2018-10-05T09:47:16.239Z,96003.05
2018-10-05T09:49:45.001Z,96004.17
2018-10-05T09:52:14.186Z,96003.60
2018-10-05T09:54:43.386Z,95999.82
2018-10-05T09:57:12.142Z,95991.52
2018-10-05T09:59:40.884Z,95986.30
2018-10-05T10:02:15.435Z,95982.39
2018-10-05T10:04:44.271Z,95980.90
2018-10-05T10:07:13.055Z,95981.97
2018-10-05T10:09:42.006Z,95977.73
2018-10-05T10:12:10.855Z,95984.03
2018-10-05T10:14:39.779Z,95982.70
2018-10-05T10:17:08.661Z,95975.00
2018-10-05T10:19:37.687Z,95971.23
2018-10-05T10:22:06.808Z,95965.84
2018-10-05T10:24:35.751Z,95955.71
2018-10-05T10:27:04.498Z,95950.88
2018-10-05T10:29:33.329Z,95948.35
2018-10-05T10:32:02.244Z,95933.16
2018-10-05T10:34:31.370Z,95937.92
2018-10-05T10:37:00.238Z,95925.17
2018-10-05T10:39:29.355Z,95920.06
2018-10-05T10:41:58.279Z,95918.00
2018-10-05T10:44:27.057Z,95911.44
2018-10-05T10:46:56.105Z,95909.75
2018-10-05T10:49:25.184Z,95902.69
2018-10-05T10:51:53.978Z,95894.45
2018-10-05T10:54:23.086Z,95897.67
2018-10-05T10:56:51.834Z,95889.56
2018-10-05T10:59:20.647Z,95887.63
2018-10-05T11:01:49.636Z,95887.75
2018-10-05T11:04:18.471Z,95887.84
2018-10-05T11:06:47.159Z,95886.84
2018-10-05T11:09:16.158Z,95875.09
2018-10-05T11:11:45.119Z,95874.55
2018-10-05T11:14:14.054Z,95871.67
2018-10-05T11:16:42.794Z,95866.50
2018-10-05T11:19:11.809Z,95863.80
2018-10-05T11:21:40.587Z,95870.85
2018-10-05T11:24:09.690Z,95866.20
2018-10-05T11:26:38.570Z,95861.12
2018-10-05T11:29:07.202Z,95862.01
2018-10-05T11:31:35.941Z,95854.45
2018-10-05T11:34:04.698Z,95853.00
2018-10-05T11:36:33.695Z,95855.47
2018-10-05T11:39:02.740Z,95849.86
2018-10-05T11:41:31.738Z,95847.90
2018-10-05T11:44:00.571Z,95849.26
2018-10-05T11:46:29.601Z,95843.91
2018-10-05T11:48:58.362Z,95837.33
2018-10-05T11:51:27.206Z,95833.53
2018-10-05T11:53:55.969Z,95834.47
2018-10-05T11:56:24.616Z,95829.51
2018-10-05T11:58:53.311Z,95829.28
2018-10-05T12:01:23.416Z,95831.64
2018-10-05T12:03:52.801Z,95827.34
2018-10-05T12:06:21.699Z,95828.55
2018-10-05T12:08:50.479Z,95818.25
2018-10-05T12:11:19.371Z,95824.53
2018-10-05T12:13:48.397Z,95820.56
2018-10-05T12:16:17.198Z,95817.78
2018-10-05T12:18:46.111Z,95823.45
2018-10-05T12:21:15.042Z,95815.78
2018-10-05T12:23:43.696Z,95814.16
2018-10-05T12:26:12.566Z,95808.95
2018-10-05T12:28:41.333Z,95806.39
2018-10-05T12:31:10.495Z,95805.44
2018-10-05T12:33:39.594Z,95805.59
2018-10-05T12:36:08.531Z,95794.67
2018-10-05T12:38:37.472Z,95789.03
2018-10-05T12:41:06.706Z,95790.45
2018-10-05T12:43:35.462Z,95783.58
2018-10-05T12:46:04.179Z,95778.36
2018-10-05T12:48:32.876Z,95780.92
2018-10-05T12:51:01.650Z,95776.92
2018-10-05T12:53:30.620Z,95777.30
2018-10-05T12:55:59.400Z,95776.41
2018-10-05T12:58:28.138Z,95770.16
2018-10-05T13:00:56.974Z,95775.72
2018-10-05T13:03:25.679Z,95772.77
2018-10-05T13:05:54.840Z,95769.06
2018-10-05T13:08:23.783Z,95769.20
2018-10-05T13:10:52.743Z,95767.70
2018-10-05T13:13:21.580Z,95765.81
2018-10-05T13:15:50.504Z,95760.78
2018-10-05T13:18:19.259Z,95761.58
2018-10-05T13:20:48.032Z,95757.89
2018-10-05T13:23:16.905Z,95755.41
2018-10-05T13:25:45.804Z,95758.41
2018-10-05T13:28:14.675Z,95758.40
2018-10-05T13:30:43.479Z,95753.14
2018-10-05T13:33:12.654Z,95759.28
2018-10-05T13:35:41.375Z,95749.96
2018-10-05T13:38:10.583Z,95750.56
2018-10-05T13:40:39.634Z,95749.41
2018-10-05T13:43:08.783Z,95745.75
2018-10-05T13:45:37.787Z,95745.26
2018-10-05T13:48:06.950Z,95746.80
2018-10-05T13:50:35.885Z,95749.67
2018-10-05T13:53:04.668Z,95747.09
2018-10-05T13:55:33.474Z,95743.51
2018-10-05T13:58:02.210Z,95750.72
2018-10-05T14:00:31.261Z,95750.16
2018-10-05T14:03:01.042Z,95744.16
2018-10-05T14:05:29.887Z,95744.44
2018-10-05T14:07:59.146Z,95745.98
2018-10-05T14:10:28.070Z,95741.48
2018-10-05T14:12:56.954Z,95743.22
2018-10-05T14:15:25.718Z,95732.64
2018-10-05T14:17:54.710Z,95738.71
2018-10-05T14:20:23.623Z,95735.80
2018-10-05T14:22:52.805Z,95736.25
2018-10-05T14:25:21.714Z,95732.72
2018-10-05T14:27:50.507Z,95731.76
2018-10-05T14:30:19.114Z,95736.04
2018-10-05T14:32:48.048Z,95736.27
2018-10-05T14:35:16.946Z,95745.12
2018-10-05T14:37:45.849Z,95742.34
2018-10-05T14:40:14.597Z,95743.88
2018-10-05T14:42:43.427Z,95741.63
2018-10-05T14:45:12.163Z,95740.92
2018-10-05T14:47:41.066Z,95739.50
2018-10-05T14:50:10.079Z,95737.64
2018-10-05T14:52:38.982Z,95738.27
2018-10-05T14:55:07.610Z,95737.67
2018-10-05T14:57:36.290Z,95741.80
2018-10-05T15:00:05.631Z,95740.80
2018-10-05T15:02:34.563Z,95740.67
2018-10-05T15:05:03.752Z,95742.94
2018-10-05T15:07:32.707Z,95746.78
2018-10-05T15:10:01.721Z,95741.31
2018-10-05T15:12:30.639Z,95744.50
2018-10-05T15:14:59.688Z,95751.80
2018-10-05T15:17:28.630Z,95747.73
2018-10-05T15:19:57.624Z,95759.29
2018-10-05T15:22:26.354Z,95755.99
2018-10-05T15:24:55.047Z,95758.37
2018-10-05T15:27:23.693Z,95758.88
2018-10-05T15:29:52.670Z,95763.13
2018-10-05T15:32:21.875Z,95762.42
2018-10-05T15:34:51.032Z,95754.87
2018-10-05T15:37:19.892Z,95754.28
2018-10-05T15:39:48.652Z,95758.58
2018-10-05T15:42:17.676Z,95760.43
2018-10-05T15:44:46.968Z,95758.74
2018-10-05T15:47:16.992Z,95758.23
2018-10-05T15:49:46.321Z,95766.34
2018-10-05T15:52:15.514Z,95758.39
2018-10-05T15:54:44.361Z,95754.09
2018-10-05T15:57:13.365Z,95760.77
2018-10-05T15:59:42.218Z,95766.70
2018-10-05T16:02:11.072Z,95762.47
2018-10-05T16:04:40.190Z,95758.00
2018-10-05T16:07:09.159Z,95759.41
2018-10-05T16:09:37.892Z,95754.94
2018-10-05T16:12:06.820Z,95752.86
2018-10-05T16:14:35.812Z,95751.87
2018-10-05T16:17:04.707Z,95754.05
2018-10-05T16:19:33.526Z,95757.23
2018-10-05T16:22:02.307Z,95756.16
2018-10-05T16:24:39.454Z,95750.88
2018-10-05T16:27:08.882Z,95751.41
2018-10-05T16:29:38.137Z,95754.27
2018-10-05T16:32:07.713Z,95749.52
2018-10-05T16:34:36.751Z,95751.89
2018-10-05T16:37:05.912Z,95752.10
2018-10-05T16:39:35.345Z,95756.59
2018-10-05T16:42:04.538Z,95758.41
2018-10-05T16:44:33.513Z,95759.69
2018-10-05T16:47:02.383Z,95764.20
2018-10-05T16:49:31.375Z,95756.75
2018-10-05T16:52:00.392Z,95764.66
2018-10-05T16:54:29.499Z,95771.98
2018-10-05T16:56:58.731Z,95765.38
2018-10-05T16:59:27.617Z,95773.80
2018-10-05T17:01:56.897Z,95773.23
2018-10-05T17:04:25.642Z,95776.37
2018-10-05T17:06:54.318Z,95778.53
2018-10-05T17:09:23.315Z,95774.23
2018-10-05T17:11:52.330Z,95785.28
2018-10-05T17:14:21.019Z,95779.97
2018-10-05T17:16:50.106Z,95787.61
2018-10-05T17:19:19.050Z,95788.88
2018-10-05T17:21:47.948Z,95789.42
2018-10-05T17:24:17.539Z,95788.73
2018-10-05T17:26:46.258Z,95787.70
2018-10-05T17:29:15.433Z,95786.63
2018-10-05T17:31:44.419Z,95791.83
2018-10-05T17:34:13.571Z,95793.42
2018-10-05T17:36:42.241Z,95785.75
2018-10-05T17:39:11.729Z,95790.02
2018-10-05T17:41:40.992Z,95788.19
2018-10-05T17:44:09.990Z,95787.59
2018-10-05T17:46:38.978Z,95793.70
2018-10-05T17:49:07.889Z,95796.38
2018-10-05T17:51:36.570Z,95801.66
2018-10-05T17:54:05.702Z,95802.65
2018-10-05T17:56:34.430Z,95801.33
2018-10-05T17:59:03.665Z,95798.80
2018-10-05T18:01:33.283Z,95798.29
2018-10-05T18:04:02.428Z,95796.48
2018-10-05T18:06:31.610Z,95805.20
2018-10-05T18:09:00.275Z,95802.38
2018-10-05T18:11:29.542Z,95801.77
2018-10-05T18:13:58.207Z,95811.22
2018-10-05T18:16:27.438Z,95808.40
2018-10-05T18:18:56.463Z,95808.73
2018-10-05T18:21:25.379Z,95811.97
2018-10-05T18:23:54.575Z,95806.59
2018-10-05T18:26:23.838Z,95798.50
2018-10-05T18:28:52.489Z,95804.16
2018-10-05T18:31:21.642Z,95803.02
2018-10-05T18:33:51.282Z,95797.12
2018-10-05T18:36:20.000Z,95799.88
2018-10-05T18:38:48.611Z,95797.58
2018-10-05T18:41:17.824Z,95797.83
2018-10-05T18:43:46.898Z,95800.29
2018-10-05T18:46:15.746Z,95799.77
2018-10-05T18:48:44.754Z,95799.16
2018-10-05T18:51:13.763Z,95807.45
2018-10-05T18:53:42.538Z,95805.61
2018-10-05T18:56:22.914Z,95805.94
2018-10-05T18:58:52.095Z,95799.03
2018-10-05T19:01:21.143Z,95804.73
2018-10-05T19:03:50.083Z,95799.53
2018-10-05T19:06:18.768Z,95810.09
2018-10-05T19:08:47.375Z,95810.66
2018-10-05T19:11:16.532Z,95820.77
2018-10-05T19:13:45.583Z,95814.73
2018-10-05T19:16:14.555Z,95821.93
2018-10-05T19:18:43.858Z,95814.38
2018-10-05T19:21:12.840Z,95820.12
2018-10-05T19:23:41.739Z,95819.77
2018-10-05T19:26:10.838Z,95823.75
2018-10-05T19:28:39.718Z,95828.97
2018-10-05T19:31:08.439Z,95829.16
2018-10-05T19:33:37.189Z,95818.98
2018-10-05T19:36:05.935Z,95820.89
2018-10-05T19:38:34.682Z,95829.55
2018-10-05T19:41:03.856Z,95828.23
2018-10-05T19:43:32.903Z,95823.86
2018-10-05T19:46:02.111Z,95838.55
2018-10-05T19:48:31.478Z,95827.39
2018-10-05T19:51:00.248Z,95826.11
2018-10-05T19:53:29.057Z,95827.56
2018-10-05T19:55:58.122Z,95834.79
2018-10-05T19:58:26.963Z,95833.16
2018-10-05T20:00:55.872Z,95837.91
2018-10-05T20:03:24.859Z,95830.20
2018-10-05T20:05:53.911Z,95837.30
2018-10-05T20:08:22.848Z,95834.93
2018-10-05T20:10:52.003Z,95839.77
2018-10-05T20:13:20.791Z,95835.25
2018-10-05T20:15:49.682Z,95838.64
2018-10-05T20:18:18.824Z,95842.11
2018-10-05T20:20:47.863Z,95840.37
2018-10-05T20:23:16.840Z,95837.55
2018-10-05T20:25:46.075Z,95844.88
2018-10-05T20:28:15.048Z,95845.59
2018-10-05T20:30:43.964Z,95842.52
2018-10-05T20:33:13.240Z,95841.50
2018-10-05T20:35:41.880Z,95844.40
2018-10-05T20:38:10.637Z,95845.49
2018-10-05T20:40:39.643Z,95848.63
2018-10-05T20:43:08.643Z,95843.70
2018-10-05T20:45:37.587Z,95850.99
2018-10-05T20:48:06.926Z,95846.04
2018-10-05T20:50:35.708Z,95844.80
2018-10-05T20:53:04.600Z,95845.21
2018-10-05T20:55:33.970Z,95848.48
2018-10-05T20:58:02.677Z,95844.95
2018-10-05T21:00:31.771Z,95839.56
2018-10-05T21:03:01.012Z,95847.39
2018-10-05T21:05:29.653Z,95847.80
2018-10-05T21:07:58.282Z,95852.23
2018-10-05T21:10:32.372Z,95849.62
2018-10-05T21:13:01.356Z,95851.82
2018-10-05T21:15:30.576Z,95852.47
2018-10-05T21:17:59.704Z,95859.09
2018-10-05T21:20:28.325Z,95865.11
2018-10-05T21:22:57.061Z,95864.19
2018-10-05T21:25:26.208Z,95860.22
2018-10-05T21:27:55.015Z,95863.23
2018-10-05T21:30:23.860Z,95870.22
2018-10-05T21:32:52.618Z,95867.95
2018-10-05T21:35:21.630Z,95865.13
2018-10-05T21:37:50.662Z,95877.54
2018-10-05T21:40:19.472Z,95878.19
2018-10-05T21:42:48.478Z,95877.93
2018-10-05T21:45:17.236Z,95877.91
2018-10-05T21:47:46.045Z,95870.65
2018-10-05T21:50:14.979Z,95867.86
2018-10-05T21:52:43.738Z,95860.20
2018-10-05T21:55:12.523Z,95867.20
2018-10-05T21:57:41.942Z,95864.28
2018-10-05T22:00:10.725Z,95875.86
2018-10-05T22:02:39.638Z,95868.98
2018-10-05T22:05:08.506Z,95864.92
2018-10-05T22:07:37.498Z,95862.75
2018-10-05T22:10:06.420Z,95869.59
2018-10-05T22:12:35.468Z,95867.73
2018-10-05T22:15:04.370Z,95871.72
2018-10-05T22:17:33.526Z,95866.52
2018-10-05T22:20:02.849Z,95860.93
2018-10-05T22:22:31.663Z,95856.48
2018-10-05T22:25:00.548Z,95858.05
2018-10-05T22:27:29.691Z,95862.19
2018-10-05T22:29:58.640Z,95861.75
2018-10-05T22:32:27.226Z,95856.73
2018-10-05T22:34:56.722Z,95848.21
2018-10-05T22:37:25.362Z,95847.44
2018-10-05T22:39:54.098Z,95851.82
2018-10-05T22:42:23.314Z,95853.68
2018-10-05T22:44:52.086Z,95855.18
2018-10-05T22:47:20.976Z,95861.40
2018-10-05T22:49:49.983Z,95860.33
2018-10-05T22:52:18.778Z,95872.62
2018-10-05T22:54:48.078Z,95862.20
2018-10-05T22:57:17.522Z,95863.23
2018-10-05T22:59:46.358Z,95866.03
2018-10-05T23:02:15.047Z,95866.65
2018-10-05T23:04:43.883Z,95865.16
2018-10-05T23:07:12.508Z,95871.44
2018-10-05T23:09:41.340Z,95862.24
2018-10-05T23:12:10.158Z,95864.80
2018-10-05T23:14:38.988Z,95868.45
2018-10-05T23:17:07.988Z,95869.06
2018-10-05T23:19:36.773Z,95872.36
2018-10-05T23:22:05.446Z,95866.87
2018-10-05T23:24:34.876Z,95872.05
2018-10-05T23:27:04.154Z,95871.06
2018-10-05T23:29:32.844Z,95861.82
2018-10-05T23:32:02.063Z,95861.44
2018-10-05T23:34:30.787Z,95858.84
2018-10-05T23:36:59.436Z,95857.92
2018-10-05T23:39:28.471Z,95856.73
2018-10-05T23:41:57.235Z,95846.69
2018-10-05T23:44:26.204Z,95850.08
2018-10-05T23:46:55.395Z,95850.33
2018-10-05T23:49:24.264Z,95841.43
2018-10-05T23:51:53.135Z,95849.73
2018-10-05T23:54:22.377Z,95849.05
2018-10-05T23:56:51.482Z,95852.55
2018-10-05T23:59:20.694Z,95855.42
